createdAt,value
2018-10-18T00:04:35.434Z,15.97
2018-10-18T00:09:20.002Z,16.07
2018-10-18T00:14:02.997Z,15.63
2018-10-18T00:18:46.345Z,16.03
2018-10-18T00:23:29.258Z,16.80
2018-10-18T00:28:12.125Z,16.50
2018-10-18T00:32:55.122Z,16.63
2018-10-18T00:37:38.447Z,16.93
2018-10-18T00:42:21.378Z,16.53
2018-10-18T00:47:04.405Z,15.57
2018-10-18T00:51:48.461Z,17.27
2018-10-18T00:56:31.354Z,18.30
2018-10-18T01:01:15.266Z,16.40
2018-10-18T01:05:58.151Z,16.57
2018-10-18T01:10:42.029Z,14.60
2018-10-18T01:15:24.895Z,17.40
2018-10-18T01:20:09.935Z,16.23
2018-10-18T01:24:52.783Z,15.23
2018-10-18T01:29:35.836Z,16.50
2018-10-18T01:34:18.681Z,16.03
2018-10-18T01:39:02.906Z,16.00
2018-10-18T01:43:45.782Z,17.73
2018-10-18T01:48:28.743Z,16.83
2018-10-18T01:53:11.785Z,19.27
2018-10-18T01:57:54.667Z,18.63
2018-10-18T02:02:39.747Z,18.57
2018-10-18T02:07:22.636Z,17.33
2018-10-18T02:12:07.831Z,15.77
2018-10-18T02:16:50.697Z,18.03
2018-10-18T02:21:34.772Z,16.43
2018-10-18T02:26:17.625Z,16.80
2018-10-18T02:31:01.511Z,16.47
2018-10-18T02:35:44.341Z,16.43
2018-10-18T02:40:28.381Z,16.00
2018-10-18T02:45:11.233Z,16.37
2018-10-18T02:49:54.342Z,16.77
2018-10-18T02:54:37.180Z,17.77
2018-10-18T02:59:20.205Z,14.50
2018-10-18T03:04:03.204Z,15.43
2018-10-18T03:08:46.151Z,16.90
2018-10-18T03:13:29.060Z,15.63
2018-10-18T03:18:11.998Z,17.67
2018-10-18T03:22:55.082Z,15.63
2018-10-18T03:27:38.439Z,16.27
2018-10-18T03:32:23.809Z,15.40
2018-10-18T03:37:06.711Z,16.57
2018-10-18T03:41:50.650Z,17.03
2018-10-18T03:46:33.731Z,18.20
2018-10-18T03:51:17.713Z,17.80
2018-10-18T03:56:00.673Z,16.67
2018-10-18T04:00:44.779Z,17.90
2018-10-18T04:05:27.626Z,15.10
2018-10-18T04:10:10.594Z,15.53
2018-10-18T04:14:53.490Z,15.10
2018-10-18T04:19:36.561Z,17.67
2018-10-18T04:24:19.515Z,17.47
2018-10-18T04:29:02.621Z,17.23
2018-10-18T04:33:45.528Z,15.97
2018-10-18T04:38:28.637Z,17.33
2018-10-18T04:43:16.180Z,18.20
2018-10-18T04:47:59.221Z,17.63
2018-10-18T04:52:42.123Z,19.17
2018-10-18T04:57:25.053Z,20.60
2018-10-18T05:02:09.287Z,17.97
2018-10-18T05:06:52.228Z,19.83
2018-10-18T05:11:36.205Z,17.77
2018-10-18T05:16:19.102Z,19.50
2018-10-18T05:21:02.222Z,16.73
2018-10-18T05:25:46.155Z,18.10
2018-10-18T05:30:30.033Z,18.73
2018-10-18T05:35:12.910Z,21.37
2018-10-18T05:39:55.830Z,19.00
2018-10-18T05:44:38.742Z,19.07
2018-10-18T05:49:23.687Z,17.80
2018-10-18T05:54:07.940Z,16.63
2018-10-18T05:58:50.991Z,17.20
2018-10-18T06:03:33.865Z,17.93
2018-10-18T06:08:17.122Z,16.57
2018-10-18T06:13:00.078Z,16.60
2018-10-18T06:17:43.050Z,16.23
2018-10-18T06:22:27.141Z,16.23
2018-10-18T06:27:10.021Z,13.47
2018-10-18T06:31:54.963Z,16.87
2018-10-18T06:36:37.841Z,16.93
2018-10-18T06:41:24.058Z,16.57
2018-10-18T06:46:10.165Z,17.87
2018-10-18T06:50:54.179Z,19.07
2018-10-18T06:55:37.130Z,19.07
2018-10-18T07:00:23.516Z,21.00
2018-10-18T07:05:07.855Z,18.73
2018-10-18T07:09:54.738Z,18.27
2018-10-18T07:14:37.632Z,17.30
2018-10-18T07:19:21.679Z,13.97
2018-10-18T07:24:04.643Z,12.17
2018-10-18T07:28:49.494Z,11.20
2018-10-18T07:33:32.406Z,11.57
2018-10-18T07:38:16.248Z,13.63
2018-10-18T07:42:59.132Z,19.50
2018-10-18T07:47:45.453Z,16.80
2018-10-18T07:52:28.327Z,17.37
2018-10-18T07:57:11.187Z,17.77
2018-10-18T08:01:54.373Z,17.33
2018-10-18T08:06:37.248Z,18.60
2018-10-18T08:11:23.410Z,17.20
2018-10-18T08:16:06.368Z,18.43
2018-10-18T08:20:50.434Z,17.47
2018-10-18T08:25:33.345Z,18.07
2018-10-18T08:30:21.920Z,17.87
2018-10-18T08:35:05.645Z,17.00
2018-10-18T08:39:49.657Z,16.77
2018-10-18T08:44:32.641Z,19.27
2018-10-18T08:49:16.652Z,17.63
2018-10-18T08:53:59.574Z,14.67
2018-10-18T08:58:43.521Z,14.27
2018-10-18T09:03:26.422Z,10.70
2018-10-18T09:08:09.574Z,11.47
2018-10-18T09:12:53.328Z,9.67
2018-10-18T09:17:37.749Z,10.90
2018-10-18T09:22:20.641Z,10.07
2018-10-18T09:27:03.588Z,9.03
2018-10-18T09:31:47.524Z,9.67
2018-10-18T09:36:30.400Z,9.28
2018-10-18T09:41:14.322Z,9.53
2018-10-18T09:45:57.296Z,10.37
2018-10-18T09:50:43.914Z,10.30
2018-10-18T09:55:26.826Z,10.30
2018-10-18T10:00:18.770Z,10.03
2018-10-18T10:05:01.628Z,9.90
2018-10-18T10:09:47.981Z,9.27
2018-10-18T10:14:30.885Z,9.53
2018-10-18T10:19:15.880Z,10.17
2018-10-18T10:23:58.690Z,10.67
2018-10-18T10:28:46.154Z,10.03
2018-10-18T10:33:29.124Z,9.10
2018-10-18T10:38:14.022Z,9.93
2018-10-18T10:42:56.966Z,8.77
2018-10-18T10:47:42.662Z,11.20
2018-10-18T10:52:25.589Z,9.97
2018-10-18T10:57:08.500Z,9.07
2018-10-18T11:01:57.237Z,8.07
2018-10-18T11:06:42.403Z,8.87
2018-10-18T11:11:27.521Z,8.33
2018-10-18T11:16:11.229Z,8.97
2018-10-18T11:20:56.409Z,8.97
2018-10-18T11:25:39.297Z,8.63
2018-10-18T11:30:23.507Z,8.20
2018-10-18T11:35:06.410Z,8.37
2018-10-18T11:39:51.524Z,7.93
2018-10-18T11:44:40.371Z,8.83
2018-10-18T11:49:25.015Z,9.33
2018-10-18T11:54:08.946Z,8.63
2018-10-18T11:58:56.831Z,8.20
2018-10-18T12:03:42.197Z,8.90
2018-10-18T12:08:27.975Z,8.50
2018-10-18T12:13:12.664Z,9.37
2018-10-18T12:17:58.254Z,9.53
2018-10-18T12:22:41.191Z,9.60
2018-10-18T12:27:25.166Z,10.50
2018-10-18T12:32:08.142Z,9.77
2018-10-18T12:36:51.001Z,10.67
2018-10-18T12:41:35.021Z,11.50
2018-10-18T12:46:17.768Z,10.60
2018-10-18T12:51:02.846Z,9.70
2018-10-18T12:55:45.766Z,11.60
2018-10-18T13:00:30.676Z,10.10
2018-10-18T13:05:13.661Z,10.17
2018-10-18T13:09:57.688Z,9.70
2018-10-18T13:14:40.617Z,9.97
2018-10-18T13:19:23.843Z,9.37
2018-10-18T13:24:06.754Z,10.83
2018-10-18T13:28:49.759Z,9.47
2018-10-18T13:33:32.631Z,10.60
2018-10-18T13:38:15.984Z,10.93
2018-10-18T13:42:59.697Z,10.63
2018-10-18T13:47:42.811Z,9.97
2018-10-18T13:53:55.187Z,9.50
2018-10-18T13:58:39.243Z,9.80
2018-10-18T14:03:22.232Z,9.93
2018-10-18T14:08:06.300Z,10.67
2018-10-18T14:12:50.558Z,10.07
2018-10-18T14:17:33.675Z,10.87
2018-10-18T14:22:16.485Z,10.27
2018-10-18T14:27:00.597Z,11.27
2018-10-18T14:31:43.490Z,11.67
2018-10-18T14:36:26.403Z,10.57
2018-10-18T14:41:10.556Z,10.90
2018-10-18T14:45:53.439Z,12.10
2018-10-18T14:50:37.496Z,11.03
2018-10-18T14:55:20.269Z,12.20
2018-10-18T15:00:03.783Z,12.87
2018-10-18T15:04:49.846Z,11.90
2018-10-18T15:09:33.653Z,13.97
2018-10-18T15:14:17.560Z,13.67
2018-10-18T15:19:00.483Z,17.90
2018-10-18T15:23:43.344Z,19.77
2018-10-18T15:28:26.273Z,20.07
2018-10-18T15:33:09.218Z,17.07
2018-10-18T15:37:53.401Z,14.90
2018-10-18T15:42:36.270Z,12.47
2018-10-18T15:47:21.348Z,13.97
2018-10-18T15:52:04.230Z,15.13
2018-10-18T15:56:47.199Z,12.17
2018-10-18T16:01:30.105Z,12.83
2018-10-18T16:06:13.100Z,14.13
2018-10-18T16:10:57.861Z,14.83
2018-10-18T16:15:40.879Z,16.87
2018-10-18T16:20:25.574Z,18.83
2018-10-18T16:25:12.898Z,18.57
2018-10-18T16:29:56.772Z,16.47
2018-10-18T16:34:40.307Z,16.00
2018-10-18T16:39:23.388Z,16.70
2018-10-18T16:44:07.191Z,15.00
2018-10-18T16:48:50.135Z,15.07
2018-10-18T16:53:34.017Z,15.37
2018-10-18T16:58:16.982Z,16.53
2018-10-18T17:02:59.861Z,15.17
2018-10-18T17:07:43.189Z,15.13
2018-10-18T17:12:26.145Z,16.97
2018-10-18T17:17:09.311Z,17.13
2018-10-18T17:21:53.242Z,15.77
2018-10-18T17:26:36.731Z,16.27
2018-10-18T17:31:19.583Z,14.40
2018-10-18T17:36:02.948Z,17.17
2018-10-18T17:40:47.080Z,14.83
2018-10-18T17:45:29.950Z,14.30
2018-10-18T17:50:13.088Z,14.90
2018-10-18T17:54:56.088Z,15.33
2018-10-18T17:59:40.100Z,16.03
2018-10-18T18:04:23.287Z,14.27
2018-10-18T18:09:06.765Z,14.63
2018-10-18T18:13:49.741Z,13.73
2018-10-18T18:18:34.047Z,12.63
2018-10-18T18:23:16.970Z,10.83
2018-10-18T18:28:00.914Z,12.90
2018-10-18T18:32:44.392Z,13.43
2018-10-18T18:37:27.514Z,13.63
2018-10-18T18:42:10.513Z,13.77
2018-10-18T18:46:54.585Z,13.43
2018-10-18T18:51:37.510Z,13.37
2018-10-18T18:56:20.811Z,11.17
2018-10-18T19:01:16.922Z,11.73
2018-10-18T19:06:09.078Z,11.87
2018-10-18T19:10:53.426Z,12.37
2018-10-18T19:15:37.453Z,13.50
2018-10-18T19:20:21.763Z,12.50
2018-10-18T19:25:06.408Z,13.40
2018-10-18T19:29:50.432Z,14.23
2018-10-18T19:34:33.371Z,13.13
2018-10-18T19:39:18.368Z,12.50
2018-10-18T19:44:01.324Z,16.27
2018-10-18T19:48:46.868Z,14.67
2018-10-18T19:53:29.796Z,16.20
2018-10-18T19:58:12.859Z,17.60
2018-10-18T20:02:57.145Z,16.37
2018-10-18T20:07:42.229Z,18.60
2018-10-18T20:12:25.083Z,17.40
2018-10-18T20:17:09.945Z,18.77
2018-10-18T20:21:52.835Z,17.03
2018-10-18T20:26:36.799Z,27.30
2018-10-18T20:31:19.675Z,19.93
2018-10-18T20:36:04.267Z,17.13
2018-10-18T20:40:47.167Z,15.57
2018-10-18T20:45:33.673Z,14.87
2018-10-18T20:50:17.534Z,14.83
2018-10-18T20:55:00.450Z,16.67
2018-10-18T20:59:43.322Z,16.37
2018-10-18T21:04:26.178Z,14.50
2018-10-18T21:09:10.431Z,16.23
2018-10-18T21:13:53.227Z,16.87
2018-10-18T21:18:36.493Z,16.77
2018-10-18T21:23:20.447Z,15.97
2018-10-18T21:28:03.459Z,15.53
2018-10-18T21:32:46.365Z,14.60
2018-10-18T21:37:30.544Z,17.10
2018-10-18T21:42:13.378Z,16.93
2018-10-18T21:46:59.217Z,15.40
2018-10-18T21:51:42.070Z,15.90
2018-10-18T21:56:25.099Z,16.37
2018-10-18T22:01:09.110Z,17.37
2018-10-18T22:05:52.150Z,15.77
2018-10-18T22:10:35.006Z,15.30
2018-10-18T22:15:17.874Z,16.07
2018-10-18T22:20:05.390Z,17.10
2018-10-18T22:24:48.322Z,15.63
2018-10-18T22:29:32.449Z,15.20
2018-10-18T22:34:15.345Z,16.37
2018-10-18T22:38:58.598Z,17.30
2018-10-18T22:43:41.501Z,15.13
2018-10-18T22:48:24.449Z,14.03
2018-10-18T22:53:07.331Z,14.87
2018-10-18T22:57:50.878Z,14.30
2018-10-18T23:02:34.277Z,15.93
2018-10-18T23:07:17.321Z,13.70
2018-10-18T23:12:00.181Z,13.60
2018-10-18T23:16:45.256Z,14.53
2018-10-18T23:21:28.169Z,14.20
2018-10-18T23:26:11.086Z,14.13
2018-10-18T23:30:54.033Z,13.83
2018-10-18T23:35:37.158Z,13.37
2018-10-18T23:40:20.046Z,13.87
2018-10-18T23:45:03.028Z,14.23
2018-10-18T23:49:46.354Z,13.90
2018-10-18T23:54:29.172Z,15.20
2018-10-18T23:59:12.148Z,14.97
